createdAt,value
2022-12-24T00:00:21.617Z,-1.5
2022-12-24T00:05:49.791Z,-1.6
2022-12-24T00:11:27.711Z,-1.8
2022-12-24T00:17:06.571Z,-1.9
2022-12-24T00:22:30.571Z,-2
2022-12-24T00:27:53.639Z,-2.1
2022-12-24T00:33:22.640Z,-2.1
2022-12-24T00:39:01.982Z,-2.2
2022-12-24T00:44:39.635Z,-2.3
2022-12-24T00:50:21.954Z,-2.4
2022-12-24T00:55:59.566Z,-2.4
2022-12-24T01:07:02.169Z,-2.6
2022-12-24T01:12:39.745Z,-2.6
2022-12-24T01:18:18.313Z,-2.8
2022-12-24T01:23:56.189Z,-2.8
2022-12-24T01:29:34.016Z,-2.8
2022-12-24T01:40:05.124Z,-2.9
2022-12-24T01:45:32.200Z,-3.1
2022-12-24T01:50:55.323Z,-3.1
2022-12-24T01:56:17.644Z,-3.2
2022-12-24T02:01:56.076Z,-3.3
2022-12-24T02:07:35.228Z,-3.3
2022-12-24T02:13:13.442Z,-3.3
2022-12-24T02:18:20.773Z,-3.2
2022-12-24T02:23:43.539Z,-3.3
2022-12-24T02:29:21.920Z,-3.4
2022-12-24T02:34:43.783Z,-3.4
2022-12-24T02:40:10.646Z,-3.5
2022-12-24T02:46:12.861Z,-3.6
2022-12-24T02:51:51.157Z,-3.7
2022-12-24T03:07:59.940Z,-3.9
2022-12-24T03:13:37.384Z,-3.9
2022-12-24T03:19:00.900Z,-4
2022-12-24T03:24:39.048Z,-4.1
2022-12-24T03:30:17.013Z,-4.1
2022-12-24T03:35:39.778Z,-4
2022-12-24T03:41:17.280Z,-3.9
2022-12-24T03:46:55.811Z,-3.9
2022-12-24T03:52:33.605Z,-3.8
2022-12-24T03:58:11.087Z,-3.6
2022-12-24T04:03:33.784Z,-3.5
2022-12-24T04:08:57.023Z,-3.4
2022-12-24T04:14:36.223Z,-3.3
2022-12-24T04:20:14.565Z,-3.2
2022-12-24T04:25:52.793Z,-3.2
2022-12-24T04:31:14.705Z,-3.2
2022-12-24T04:36:53.389Z,-3.1
2022-12-24T04:42:19.959Z,-3
2022-12-24T04:47:27.666Z,-2.9
2022-12-24T04:53:05.891Z,-2.9
2022-12-24T04:58:12.659Z,-3
2022-12-24T05:04:07.159Z,-3.1
2022-12-24T05:10:00.147Z,-3.1
2022-12-24T05:15:45.800Z,-3.2
2022-12-24T05:21:23.685Z,-3.2
2022-12-24T05:27:01.586Z,-3.3
2022-12-24T05:32:25.230Z,-3.3
2022-12-24T05:37:48.524Z,-3.3
2022-12-24T05:43:31.035Z,-3.3
2022-12-24T05:48:55.373Z,-3.2
2022-12-24T05:54:34.755Z,-3.1
2022-12-24T05:59:57.269Z,-2.9
2022-12-24T06:05:41.391Z,-2.9
2022-12-24T06:11:04.259Z,-2.8
2022-12-24T06:16:47.995Z,-2.8
2022-12-24T06:22:26.573Z,-2.7
2022-12-24T06:27:49.227Z,-2.6
2022-12-24T06:33:35.904Z,-2.6
2022-12-24T06:39:14.226Z,-2.4
2022-12-24T06:44:52.485Z,-2.4
2022-12-24T06:50:30.843Z,-2.2
2022-12-24T06:56:09.113Z,-1.8
2022-12-24T07:01:37.742Z,-1.2
2022-12-24T07:07:16.887Z,0
2022-12-24T07:12:56.404Z,2.9
2022-12-24T07:18:42.484Z,7.2
2022-12-24T07:24:21.285Z,8.4
2022-12-24T07:29:59.588Z,8.4
2022-12-24T07:35:55.774Z,8.6
2022-12-24T07:41:39.788Z,9.4
2022-12-24T07:47:19.995Z,10.6
2022-12-24T07:52:58.160Z,11
2022-12-24T07:58:37.077Z,11.6
2022-12-24T08:04:21.667Z,12.6
2022-12-24T08:10:00.165Z,13.4
2022-12-24T08:15:37.903Z,14.1
2022-12-24T08:21:16.784Z,14.8
2022-12-24T08:26:54.800Z,15.1
2022-12-24T08:32:40.069Z,15.3
2022-12-24T08:38:17.935Z,15.1
2022-12-24T08:43:56.882Z,14.9
2022-12-24T08:49:40.219Z,14.8
2022-12-24T08:55:18.336Z,14.5
2022-12-24T09:01:01.664Z,14.4
2022-12-24T09:06:46.849Z,14.5
2022-12-24T09:12:29.828Z,14.9
2022-12-24T09:18:13.889Z,15.4
2022-12-24T09:23:41.269Z,15.6
2022-12-24T09:29:04.214Z,15.6
2022-12-24T09:34:47.924Z,15.7
2022-12-24T09:40:26.115Z,15.8
2022-12-24T09:45:53.567Z,16.1
2022-12-24T09:51:35.768Z,17.1
2022-12-24T09:56:58.593Z,18.3
2022-12-24T10:02:22.470Z,18.9
2022-12-24T10:08:01.640Z,19.1
2022-12-24T10:13:29.737Z,19.1
2022-12-24T10:19:07.976Z,18.9
2022-12-24T10:24:50.225Z,19.6
2022-12-24T10:30:34.461Z,20.9
2022-12-24T10:36:12.697Z,21.3
2022-12-24T10:47:23.938Z,20.6
2022-12-24T10:53:05.922Z,20.3
2022-12-24T10:58:44.372Z,20
2022-12-24T11:04:26.151Z,19.4
2022-12-24T11:09:52.096Z,18.8
2022-12-24T11:16:11.069Z,18.6
2022-12-24T11:21:56.607Z,18.8
2022-12-24T11:27:42.347Z,19.6
2022-12-24T11:33:25.793Z,21.5
2022-12-24T11:39:04.010Z,25
2022-12-24T11:44:43.772Z,29.6
2022-12-24T11:50:38.739Z,30
2022-12-24T11:56:24.068Z,29.6
2022-12-24T12:02:10.816Z,29.6
2022-12-24T12:07:33.684Z,29.2
2022-12-24T12:13:14.834Z,28.9
2022-12-24T12:18:54.115Z,28.4
2022-12-24T12:24:37.140Z,27.4
2022-12-24T12:30:16.055Z,26.3
2022-12-24T12:36:01.640Z,25.3
2022-12-24T12:41:46.683Z,24.8
2022-12-24T12:47:14.956Z,24.3
2022-12-24T12:53:01.404Z,23.8
2022-12-24T12:58:43.529Z,22.8
2022-12-24T13:04:10.772Z,21.6
2022-12-24T13:09:56.834Z,20.5
2022-12-24T13:15:39.376Z,19.4
2022-12-24T13:21:23.566Z,18.4
2022-12-24T13:27:08.989Z,17.5
2022-12-24T13:32:48.191Z,16.7
2022-12-24T13:38:30.374Z,15.9
2022-12-24T13:44:30.760Z,15
2022-12-24T13:49:53.276Z,14.3
2022-12-24T13:55:35.172Z,13.6
2022-12-24T14:01:20.370Z,12.9
2022-12-24T14:12:34.422Z,11.4
2022-12-24T14:18:13.189Z,10.8
2022-12-24T14:23:52.880Z,10.3
2022-12-24T14:29:31.469Z,9.8
2022-12-24T14:35:10.190Z,9.4
2022-12-24T14:40:33.292Z,8.9
2022-12-24T14:46:15.747Z,8.5
2022-12-24T14:51:54.234Z,8.2
2022-12-24T14:58:42.233Z,7.9
2022-12-24T15:04:24.076Z,7.7
2022-12-24T15:10:07.074Z,7.6
2022-12-24T15:21:03.932Z,7.4
2022-12-24T15:26:27.038Z,7.3
2022-12-24T15:32:12.894Z,7.1
2022-12-24T15:37:51.042Z,7.1
2022-12-24T15:43:13.819Z,7
2022-12-24T15:48:22.552Z,6.9
2022-12-24T15:53:39.627Z,6.8
2022-12-24T15:59:08.088Z,6.7
2022-12-24T16:04:17.924Z,6.7
2022-12-24T16:09:40.727Z,6.6
2022-12-24T16:14:55.091Z,6.6
2022-12-24T16:20:36.217Z,6.6
2022-12-24T16:26:14.797Z,6.5
2022-12-24T16:31:57.210Z,6.5
2022-12-24T16:37:35.022Z,6.4
2022-12-24T16:43:04.576Z,6.4
2022-12-24T16:48:45.801Z,6.4
2022-12-24T16:54:29.879Z,6.4
2022-12-24T16:59:37.539Z,6.4
